createdAt,value
2023-03-26T00:00:15.715Z,13.57
2023-03-26T00:00:45.718Z,13.5
2023-03-26T00:01:15.773Z,13.5
2023-03-26T00:01:45.767Z,13.43
2023-03-26T00:02:15.761Z,13.45
2023-03-26T00:02:45.754Z,13.53
2023-03-26T00:03:15.732Z,13.57
2023-03-26T00:03:45.718Z,13.66
2023-03-26T00:04:15.722Z,13.74
2023-03-26T00:04:45.720Z,13.77
2023-03-26T00:05:15.739Z,13.75
2023-03-26T00:05:45.938Z,13.72
2023-03-26T00:06:15.729Z,13.78
2023-03-26T00:06:45.713Z,13.79
2023-03-26T00:07:15.724Z,13.8
2023-03-26T00:07:45.716Z,13.77
2023-03-26T00:08:15.721Z,13.72
2023-03-26T00:08:45.812Z,13.69
2023-03-26T00:09:15.728Z,13.73
2023-03-26T00:09:45.716Z,13.82
2023-03-26T00:10:15.731Z,13.83
2023-03-26T00:10:45.714Z,13.77
2023-03-26T00:11:15.717Z,13.79
2023-03-26T00:11:45.713Z,13.77
2023-03-26T00:12:15.714Z,13.83
2023-03-26T00:12:45.718Z,13.79
2023-03-26T00:13:15.725Z,13.71
2023-03-26T00:13:45.722Z,13.74
2023-03-26T00:14:15.719Z,13.85
2023-03-26T00:14:45.722Z,13.98
2023-03-26T00:15:15.717Z,14.08
2023-03-26T00:15:45.719Z,14.17
2023-03-26T00:16:15.782Z,14.2
2023-03-26T00:16:45.740Z,14.23
2023-03-26T00:17:15.713Z,14.13
2023-03-26T00:17:45.760Z,14.13
2023-03-26T00:18:15.720Z,14.18
2023-03-26T00:18:45.713Z,14.17
2023-03-26T00:19:15.747Z,14.16
2023-03-26T00:19:45.715Z,14.2
2023-03-26T00:20:15.713Z,14.24
2023-03-26T00:20:45.755Z,14.27
2023-03-26T00:21:15.760Z,14.34
2023-03-26T00:21:45.751Z,14.31
2023-03-26T00:22:15.721Z,14.28
2023-03-26T00:22:45.725Z,14.23
2023-03-26T00:23:15.730Z,14.2
2023-03-26T00:23:45.721Z,14.25
2023-03-26T00:24:15.720Z,14.32
2023-03-26T00:24:45.724Z,14.35
2023-03-26T00:25:15.714Z,14.39
2023-03-26T00:25:45.941Z,14.33
2023-03-26T00:26:15.718Z,14.26
2023-03-26T00:26:45.722Z,14.15
2023-03-26T00:27:15.742Z,14.03
2023-03-26T00:27:45.748Z,13.95
2023-03-26T00:28:15.732Z,13.81
2023-03-26T00:28:45.731Z,13.78
2023-03-26T00:29:15.752Z,13.72
2023-03-26T00:29:45.725Z,13.59
2023-03-26T00:30:15.718Z,13.49
2023-03-26T00:30:45.725Z,13.44
2023-03-26T00:31:15.751Z,13.41
2023-03-26T00:31:45.723Z,13.47
2023-03-26T00:32:15.729Z,13.5
2023-03-26T00:32:45.742Z,13.54
2023-03-26T00:33:16.650Z,13.53
2023-03-26T00:33:45.725Z,13.56
2023-03-26T00:34:15.810Z,13.56
2023-03-26T00:34:45.729Z,13.62
2023-03-26T00:35:15.728Z,13.57
2023-03-26T00:35:45.747Z,13.51
2023-03-26T00:36:15.776Z,13.46
2023-03-26T00:36:45.724Z,13.4
2023-03-26T00:37:15.738Z,13.4
2023-03-26T00:37:45.726Z,13.37
2023-03-26T00:38:15.722Z,13.44
2023-03-26T00:38:45.726Z,13.56
2023-03-26T00:39:15.727Z,13.56
2023-03-26T00:39:45.736Z,13.5
2023-03-26T00:40:15.731Z,13.41
2023-03-26T00:40:45.730Z,13.35
2023-03-26T00:41:15.729Z,13.35
2023-03-26T00:41:45.734Z,13.31
2023-03-26T00:42:15.736Z,13.37
2023-03-26T00:42:45.735Z,13.51
2023-03-26T00:43:15.733Z,13.65
2023-03-26T00:43:45.757Z,13.67
2023-03-26T00:44:15.735Z,13.65
2023-03-26T00:44:45.744Z,13.65
2023-03-26T00:45:15.729Z,13.73
2023-03-26T00:45:45.760Z,13.74
2023-03-26T00:46:15.867Z,13.72
2023-03-26T00:46:45.774Z,13.74
2023-03-26T00:47:15.725Z,13.75
2023-03-26T00:47:45.757Z,13.82
2023-03-26T00:48:15.776Z,13.91
2023-03-26T00:48:46.233Z,13.96
2023-03-26T00:49:15.731Z,14.06
2023-03-26T00:49:45.730Z,14.03
2023-03-26T00:50:15.752Z,14.05
2023-03-26T00:50:45.736Z,14.13
2023-03-26T00:51:15.945Z,14.2
2023-03-26T00:51:45.732Z,14.29
2023-03-26T00:52:15.733Z,14.31
2023-03-26T00:52:45.736Z,14.24
2023-03-26T00:53:15.749Z,14.14
2023-03-26T00:53:45.742Z,14.12
2023-03-26T00:54:15.766Z,14.14
2023-03-26T00:54:45.733Z,14.21
2023-03-26T00:55:15.731Z,14.27
2023-03-26T00:55:45.740Z,14.23
2023-03-26T00:56:15.748Z,14.26
2023-03-26T00:56:45.768Z,14.16
2023-03-26T00:57:25.622Z,14.08
2023-03-26T00:57:46.693Z,14.05
2023-03-26T00:58:15.740Z,13.99
2023-03-26T00:58:45.739Z,13.98
2023-03-26T00:59:15.743Z,14.01
2023-03-26T00:59:45.731Z,14.03
2023-03-26T01:00:15.747Z,14.12
2023-03-26T01:00:46.847Z,14.18
2023-03-26T01:01:15.777Z,14.22
2023-03-26T01:01:45.833Z,14.11
2023-03-26T01:02:15.798Z,14.09
2023-03-26T01:02:45.853Z,14.1
2023-03-26T01:03:26.576Z,14.17
2023-03-26T01:03:57.092Z,14.23
2023-03-26T01:04:16.692Z,14.3
2023-03-26T01:04:45.852Z,14.4
2023-03-26T01:05:15.772Z,14.44
2023-03-26T01:05:45.738Z,14.46
2023-03-26T01:06:15.731Z,14.5
2023-03-26T01:06:45.734Z,14.52
2023-03-26T01:07:15.745Z,14.56
2023-03-26T01:07:45.734Z,14.62
2023-03-26T01:08:15.733Z,14.69
2023-03-26T01:08:45.785Z,14.76
2023-03-26T01:09:15.751Z,14.68
2023-03-26T01:09:45.751Z,14.6
2023-03-26T01:10:15.751Z,14.53
2023-03-26T01:10:45.738Z,14.48
2023-03-26T01:11:15.749Z,14.48
2023-03-26T01:11:45.787Z,14.51
2023-03-26T01:12:15.740Z,14.56
2023-03-26T01:12:45.741Z,14.62
2023-03-26T01:13:15.730Z,14.69
2023-03-26T01:13:45.736Z,14.71
2023-03-26T01:14:15.735Z,14.76
2023-03-26T01:14:45.737Z,14.75
2023-03-26T01:15:15.740Z,14.69
2023-03-26T01:15:45.777Z,14.53
2023-03-26T01:16:15.752Z,14.35
2023-03-26T01:16:45.736Z,14.32
2023-03-26T01:17:15.738Z,14.32
2023-03-26T01:17:45.780Z,14.36
2023-03-26T01:18:15.734Z,14.38
2023-03-26T01:18:45.745Z,14.38
2023-03-26T01:19:15.734Z,14.35
2023-03-26T01:19:45.738Z,14.27
2023-03-26T01:20:15.733Z,14.19
2023-03-26T01:20:45.735Z,14.12
2023-03-26T01:21:15.735Z,14.1
2023-03-26T01:21:45.738Z,14.13
2023-03-26T01:22:15.737Z,14.16
2023-03-26T01:22:45.737Z,14.22
2023-03-26T01:23:15.741Z,14.32
2023-03-26T01:23:45.736Z,14.39
2023-03-26T01:24:15.739Z,14.37
2023-03-26T01:24:45.745Z,14.31
2023-03-26T01:25:15.735Z,14.22
2023-03-26T01:25:45.761Z,14.07
2023-03-26T01:26:15.741Z,14.05
2023-03-26T01:26:45.739Z,14.12
2023-03-26T01:27:15.749Z,14.17
2023-03-26T01:27:45.737Z,14.15
2023-03-26T01:28:15.738Z,14.07
2023-03-26T01:28:45.738Z,14.02
2023-03-26T01:29:15.738Z,13.98
2023-03-26T01:29:45.741Z,13.95
2023-03-26T01:30:15.742Z,13.95
2023-03-26T01:30:45.747Z,14.01
2023-03-26T01:31:15.745Z,14.12
2023-03-26T01:31:45.741Z,14.22
2023-03-26T01:32:15.745Z,14.3
2023-03-26T01:32:45.796Z,14.38
2023-03-26T01:33:15.822Z,14.39
2023-03-26T01:33:45.870Z,14.45
2023-03-26T01:34:15.778Z,14.51
2023-03-26T01:34:45.737Z,14.47
2023-03-26T01:35:15.740Z,14.38
2023-03-26T01:35:45.848Z,14.26
2023-03-26T01:36:15.738Z,14.23
2023-03-26T01:36:45.740Z,14.22
2023-03-26T01:37:15.752Z,14.23
2023-03-26T01:37:45.744Z,14.29
2023-03-26T01:38:15.749Z,14.38
2023-03-26T01:38:45.742Z,14.42
2023-03-26T01:39:15.738Z,14.36
2023-03-26T01:39:45.742Z,14.35
2023-03-26T01:40:15.757Z,14.4
2023-03-26T01:40:45.754Z,14.45
2023-03-26T01:41:15.743Z,14.48
2023-03-26T01:41:45.743Z,14.49
2023-03-26T01:42:15.745Z,14.52
2023-03-26T01:42:45.735Z,14.58
2023-03-26T01:43:15.739Z,14.59
2023-03-26T01:43:45.738Z,14.57
2023-03-26T01:44:15.740Z,14.58
2023-03-26T01:44:45.737Z,14.59
2023-03-26T01:45:15.750Z,14.63
2023-03-26T01:45:45.743Z,14.63
2023-03-26T01:46:15.788Z,14.62
2023-03-26T01:46:45.782Z,14.63
2023-03-26T01:47:15.739Z,14.65
2023-03-26T01:47:45.808Z,14.59
2023-03-26T01:48:15.736Z,14.54
2023-03-26T01:48:45.753Z,14.44
2023-03-26T01:49:15.737Z,14.44
2023-03-26T01:49:45.742Z,14.44
2023-03-26T01:50:15.751Z,14.5
2023-03-26T01:50:45.743Z,14.55
2023-03-26T01:51:15.740Z,14.54
2023-03-26T01:51:45.744Z,14.45
2023-03-26T01:52:15.745Z,14.38
2023-03-26T01:52:45.741Z,14.37
2023-03-26T01:53:15.742Z,14.4
2023-03-26T01:53:45.757Z,14.45
2023-03-26T01:54:15.754Z,14.45
2023-03-26T01:54:45.746Z,14.3
2023-03-26T01:55:15.742Z,14.22
2023-03-26T01:55:45.747Z,14.19
2023-03-26T01:56:15.752Z,14.17
2023-03-26T01:56:45.767Z,14.19
2023-03-26T01:57:15.746Z,14.23
2023-03-26T01:57:45.746Z,14.29
2023-03-26T01:58:15.744Z,14.35
2023-03-26T01:58:45.755Z,14.31
2023-03-26T01:59:15.742Z,14.28
2023-03-26T01:59:45.750Z,14.26
2023-03-26T02:00:15.742Z,14.2
2023-03-26T02:00:45.748Z,14.05
2023-03-26T02:01:15.814Z,13.99
2023-03-26T02:01:45.818Z,14.04
2023-03-26T02:02:15.821Z,14.1
2023-03-26T02:02:45.844Z,14.19
2023-03-26T02:03:15.867Z,14.28
2023-03-26T02:03:45.779Z,14.33
2023-03-26T02:04:15.749Z,14.37
2023-03-26T02:04:45.745Z,14.42
2023-03-26T02:05:15.743Z,14.51
2023-03-26T02:05:45.747Z,14.58
2023-03-26T02:06:15.750Z,14.65
2023-03-26T02:06:45.775Z,14.7
2023-03-26T02:07:15.758Z,14.72
2023-03-26T02:07:45.759Z,14.63
2023-03-26T02:08:15.773Z,14.52
2023-03-26T02:08:45.742Z,14.48
2023-03-26T02:09:15.743Z,14.48
2023-03-26T02:09:45.745Z,14.49
2023-03-26T02:10:15.749Z,14.54
2023-03-26T02:10:45.754Z,14.58
2023-03-26T02:11:16.562Z,14.64
2023-03-26T02:11:45.746Z,14.68
2023-03-26T02:12:15.745Z,14.72
2023-03-26T02:12:45.758Z,14.79
2023-03-26T02:13:15.747Z,14.81
2023-03-26T02:13:45.746Z,14.82
2023-03-26T02:14:15.754Z,14.79
2023-03-26T02:14:45.744Z,14.75
2023-03-26T02:15:15.745Z,14.7
2023-03-26T02:15:45.745Z,14.68
2023-03-26T02:16:15.768Z,14.66
2023-03-26T02:16:45.800Z,14.7
2023-03-26T02:17:15.750Z,14.76
2023-03-26T02:17:45.797Z,14.82
2023-03-26T02:18:15.745Z,14.87
2023-03-26T02:18:45.780Z,14.92
2023-03-26T02:19:16.103Z,14.95
2023-03-26T02:19:45.756Z,14.98
2023-03-26T02:20:15.750Z,15
2023-03-26T02:20:45.753Z,15.02
2023-03-26T02:21:15.747Z,15.04
2023-03-26T02:21:45.745Z,15.06
2023-03-26T02:22:15.927Z,14.9
2023-03-26T02:22:45.930Z,14.81
2023-03-26T02:23:15.754Z,14.79
2023-03-26T02:23:45.745Z,14.79
2023-03-26T02:24:15.749Z,14.76
2023-03-26T02:24:45.751Z,14.76
2023-03-26T02:25:15.758Z,14.78
2023-03-26T02:25:45.741Z,14.77
2023-03-26T02:26:15.754Z,14.78
2023-03-26T02:26:45.754Z,14.81
2023-03-26T02:27:15.752Z,14.85
2023-03-26T02:27:45.752Z,14.89
2023-03-26T02:28:15.741Z,14.86
2023-03-26T02:28:45.760Z,14.81
2023-03-26T02:29:15.747Z,14.81
2023-03-26T02:29:45.761Z,14.78
2023-03-26T02:30:15.762Z,14.78
2023-03-26T02:30:45.744Z,14.77
2023-03-26T02:31:15.782Z,14.79
2023-03-26T02:31:45.766Z,14.81
2023-03-26T02:32:15.754Z,14.74
2023-03-26T02:32:45.780Z,14.66
2023-03-26T02:33:15.764Z,14.64
2023-03-26T02:33:45.745Z,14.61
2023-03-26T02:34:15.745Z,14.48
2023-03-26T02:34:45.751Z,14.4
2023-03-26T02:35:15.812Z,14.37
2023-03-26T02:35:45.956Z,14.36
2023-03-26T02:36:15.803Z,14.33
2023-03-26T02:36:45.796Z,14.35
2023-03-26T02:37:15.756Z,14.39
2023-03-26T02:37:45.748Z,14.4
2023-03-26T02:38:15.760Z,14.39
2023-03-26T02:38:45.748Z,14.42
2023-03-26T02:39:15.747Z,14.37
2023-03-26T02:39:45.756Z,14.37
2023-03-26T02:40:15.751Z,14.44
2023-03-26T02:40:45.752Z,14.49
2023-03-26T02:41:15.778Z,14.44
2023-03-26T02:41:45.773Z,14.37
2023-03-26T02:42:15.752Z,14.36
2023-03-26T02:42:45.747Z,14.29
2023-03-26T02:43:15.753Z,14.22
2023-03-26T02:43:45.750Z,14.26
2023-03-26T02:44:15.746Z,14.36
2023-03-26T02:44:45.746Z,14.47
2023-03-26T02:45:15.751Z,14.58
2023-03-26T02:45:45.807Z,14.7
2023-03-26T02:46:15.895Z,14.8
2023-03-26T02:46:45.755Z,14.91
2023-03-26T02:47:15.753Z,15.01
2023-03-26T02:47:45.782Z,15.1
2023-03-26T02:48:15.766Z,15.19
2023-03-26T02:48:45.755Z,15.26
2023-03-26T02:49:15.754Z,15.32
2023-03-26T02:49:45.754Z,15.36
2023-03-26T02:50:15.760Z,15.39
2023-03-26T02:50:45.758Z,15.41
2023-03-26T02:51:15.748Z,15.43
2023-03-26T02:51:45.756Z,15.44
2023-03-26T02:52:15.749Z,15.46
2023-03-26T02:52:45.761Z,15.47
2023-03-26T02:53:15.753Z,15.47
2023-03-26T02:53:45.757Z,15.46
2023-03-26T02:54:15.754Z,15.44
2023-03-26T02:54:45.756Z,15.45
2023-03-26T02:55:15.751Z,15.47
2023-03-26T02:55:45.754Z,15.49
2023-03-26T02:56:15.751Z,15.51
2023-03-26T02:56:45.820Z,15.53
2023-03-26T02:57:15.792Z,15.54
2023-03-26T02:57:45.755Z,15.54
2023-03-26T02:58:15.753Z,15.54
2023-03-26T02:58:45.751Z,15.53
2023-03-26T02:59:15.747Z,15.54
2023-03-26T02:59:45.757Z,15.55
2023-03-26T03:00:15.752Z,15.53
2023-03-26T03:00:45.767Z,15.53
2023-03-26T03:01:15.797Z,15.54
2023-03-26T03:01:45.760Z,15.54
2023-03-26T03:02:15.820Z,15.55
2023-03-26T03:02:45.801Z,15.52
2023-03-26T03:03:15.799Z,15.5
2023-03-26T03:03:45.759Z,15.44
2023-03-26T03:04:15.756Z,15.37
2023-03-26T03:04:45.759Z,15.26
2023-03-26T03:05:15.752Z,15.2
2023-03-26T03:05:45.756Z,15.14
2023-03-26T03:06:15.747Z,15.07
2023-03-26T03:06:45.751Z,15.08
2023-03-26T03:07:15.760Z,15.01
2023-03-26T03:07:45.753Z,14.9
2023-03-26T03:08:15.751Z,14.87
2023-03-26T03:08:45.755Z,14.85
2023-03-26T03:09:15.748Z,14.85
2023-03-26T03:09:45.757Z,14.8
2023-03-26T03:10:15.756Z,14.76
2023-03-26T03:10:45.750Z,14.72
2023-03-26T03:11:15.760Z,14.64
2023-03-26T03:11:45.773Z,14.5
2023-03-26T03:12:15.757Z,14.39
2023-03-26T03:12:45.755Z,14.27
2023-03-26T03:13:15.755Z,14.25
2023-03-26T03:13:45.760Z,14.28
2023-03-26T03:14:15.757Z,14.35
2023-03-26T03:14:45.753Z,14.43
2023-03-26T03:15:15.755Z,14.47
2023-03-26T03:15:45.754Z,14.51
2023-03-26T03:16:15.778Z,14.44
2023-03-26T03:16:45.798Z,14.44
2023-03-26T03:17:15.762Z,14.46
2023-03-26T03:17:45.789Z,14.46
2023-03-26T03:18:15.775Z,14.47
2023-03-26T03:18:45.754Z,14.55
2023-03-26T03:19:15.775Z,14.53
2023-03-26T03:19:45.762Z,14.51
2023-03-26T03:20:15.773Z,14.56
2023-03-26T03:20:45.751Z,14.67
2023-03-26T03:21:15.774Z,14.75
2023-03-26T03:21:45.760Z,14.84
2023-03-26T03:22:15.765Z,14.9
2023-03-26T03:22:45.781Z,14.93
2023-03-26T03:23:15.758Z,14.95
2023-03-26T03:23:45.762Z,14.98
2023-03-26T03:24:15.761Z,15.04
2023-03-26T03:24:45.758Z,15.01
2023-03-26T03:25:15.755Z,14.92
2023-03-26T03:25:45.772Z,14.88
2023-03-26T03:26:15.814Z,14.76
2023-03-26T03:26:45.776Z,14.63
2023-03-26T03:27:15.755Z,14.56
2023-03-26T03:27:45.760Z,14.56
2023-03-26T03:28:15.758Z,14.63
2023-03-26T03:28:45.764Z,14.76
2023-03-26T03:29:15.770Z,14.91
2023-03-26T03:29:45.766Z,15.07
2023-03-26T03:30:15.770Z,15.21
2023-03-26T03:30:45.871Z,15.29
2023-03-26T03:31:15.791Z,15.27
2023-03-26T03:31:45.764Z,15.24
2023-03-26T03:32:15.764Z,15.29
2023-03-26T03:32:45.840Z,15.36
2023-03-26T03:33:15.761Z,15.45
2023-03-26T03:33:45.787Z,15.52
2023-03-26T03:34:15.766Z,15.56
2023-03-26T03:34:45.761Z,15.61
2023-03-26T03:35:15.770Z,15.69
2023-03-26T03:35:45.810Z,15.73
2023-03-26T03:36:20.483Z,15.76
2023-03-26T03:36:46.901Z,15.78
2023-03-26T03:37:15.764Z,15.85
2023-03-26T03:37:45.761Z,15.9
2023-03-26T03:38:15.764Z,15.96
2023-03-26T03:38:45.772Z,16.06
2023-03-26T03:39:15.763Z,16.11
2023-03-26T03:39:45.763Z,16.12
2023-03-26T03:40:15.775Z,16.04
2023-03-26T03:40:45.787Z,15.89
2023-03-26T03:41:15.788Z,15.9
2023-03-26T03:41:45.760Z,15.97
2023-03-26T03:42:15.765Z,16.09
2023-03-26T03:42:45.761Z,16.26
2023-03-26T03:43:15.774Z,16.39
2023-03-26T03:43:45.771Z,16.53
2023-03-26T03:44:15.762Z,16.68
2023-03-26T03:44:45.762Z,16.83
2023-03-26T03:45:15.778Z,16.94
2023-03-26T03:45:45.793Z,17.01
2023-03-26T03:46:15.833Z,17.08
2023-03-26T03:46:45.926Z,17.15
2023-03-26T03:47:15.784Z,17.22
2023-03-26T03:47:45.799Z,17.25
2023-03-26T03:48:15.771Z,17.23
2023-03-26T03:48:45.775Z,17.1
2023-03-26T03:49:15.767Z,16.97
2023-03-26T03:49:45.772Z,16.83
2023-03-26T03:50:15.772Z,16.77
2023-03-26T03:50:45.770Z,16.74
2023-03-26T03:51:15.775Z,16.73
2023-03-26T03:51:45.771Z,16.69
2023-03-26T03:52:15.783Z,16.58
2023-03-26T03:52:45.782Z,16.42
2023-03-26T03:53:15.776Z,16.35
2023-03-26T03:53:45.768Z,16.31
2023-03-26T03:54:15.766Z,16.22
2023-03-26T03:54:45.767Z,16.13
2023-03-26T03:55:15.766Z,16.14
2023-03-26T03:55:45.772Z,16.14
2023-03-26T03:56:15.774Z,16.18
2023-03-26T03:56:45.848Z,16.26
2023-03-26T03:57:15.775Z,16.34
2023-03-26T03:57:45.783Z,16.42
2023-03-26T03:58:15.770Z,16.45
2023-03-26T03:58:45.777Z,16.43
2023-03-26T03:59:15.772Z,16.42
2023-03-26T03:59:47.820Z,16.35
2023-03-26T04:00:15.769Z,16.33
2023-03-26T04:00:45.771Z,16.24
2023-03-26T04:01:15.767Z,16.22
2023-03-26T04:01:45.770Z,16.09
2023-03-26T04:02:15.848Z,15.97
2023-03-26T04:02:45.928Z,15.75
2023-03-26T04:03:15.865Z,15.63
2023-03-26T04:03:45.846Z,15.57
2023-03-26T04:04:15.804Z,15.51
2023-03-26T04:04:45.770Z,15.56
2023-03-26T04:05:15.775Z,15.68
2023-03-26T04:05:45.788Z,15.8
2023-03-26T04:06:15.770Z,15.81
2023-03-26T04:06:45.768Z,15.78
2023-03-26T04:07:15.767Z,15.68
2023-03-26T04:07:45.766Z,15.71
2023-03-26T04:08:15.770Z,15.81
2023-03-26T04:08:45.774Z,15.97
2023-03-26T04:09:15.777Z,16.12
2023-03-26T04:09:45.770Z,16.27
2023-03-26T04:10:15.772Z,16.4
2023-03-26T04:10:45.779Z,16.42
2023-03-26T04:11:15.775Z,16.45
2023-03-26T04:11:45.784Z,16.49
2023-03-26T04:12:15.767Z,16.6
2023-03-26T04:12:45.781Z,16.64
2023-03-26T04:13:15.782Z,16.67
2023-03-26T04:13:45.782Z,16.78
2023-03-26T04:14:15.773Z,16.91
2023-03-26T04:14:45.766Z,16.97
2023-03-26T04:15:15.779Z,17.05
2023-03-26T04:15:45.795Z,17.15
2023-03-26T04:16:15.790Z,17.28
2023-03-26T04:16:45.770Z,17.4
2023-03-26T04:17:15.782Z,17.51
2023-03-26T04:17:45.807Z,17.6
2023-03-26T04:18:15.773Z,17.7
2023-03-26T04:18:45.777Z,17.82
2023-03-26T04:19:15.780Z,17.9
2023-03-26T04:19:45.813Z,17.99
2023-03-26T04:20:16.045Z,18.11
2023-03-26T04:20:45.773Z,18.25
2023-03-26T04:21:15.910Z,18.39
2023-03-26T04:21:45.778Z,18.56
2023-03-26T04:22:15.772Z,18.76
2023-03-26T04:22:45.771Z,18.95
2023-03-26T04:23:15.774Z,19.1
2023-03-26T04:23:45.780Z,19.23
2023-03-26T04:24:15.774Z,19.34
2023-03-26T04:24:45.780Z,19.48
2023-03-26T04:25:15.782Z,19.64
2023-03-26T04:25:45.777Z,19.72
2023-03-26T04:26:15.774Z,19.83
2023-03-26T04:26:45.778Z,19.92
2023-03-26T04:27:15.772Z,19.99
2023-03-26T04:27:45.770Z,20.1
2023-03-26T04:28:15.773Z,20.21
2023-03-26T04:28:45.776Z,20.27
2023-03-26T04:29:15.775Z,20.22
2023-03-26T04:29:45.770Z,20.17
2023-03-26T04:30:15.808Z,20.02
2023-03-26T04:30:45.772Z,19.6
2023-03-26T04:31:15.858Z,19.27
2023-03-26T04:31:45.860Z,19.1
2023-03-26T04:32:15.776Z,19.03
2023-03-26T04:32:45.815Z,19.01
2023-03-26T04:33:15.780Z,19.06
2023-03-26T04:33:45.780Z,19.2
2023-03-26T04:34:15.780Z,19.38
2023-03-26T04:34:45.782Z,19.59
2023-03-26T04:35:15.775Z,19.8
2023-03-26T04:35:45.805Z,19.91
2023-03-26T04:36:15.792Z,19.95
2023-03-26T04:36:45.776Z,19.96
2023-03-26T04:37:15.778Z,20.02
2023-03-26T04:37:45.777Z,20
2023-03-26T04:38:15.776Z,19.86
2023-03-26T04:38:45.792Z,19.73
2023-03-26T04:39:15.776Z,19.7
2023-03-26T04:39:45.774Z,19.77
2023-03-26T04:40:15.782Z,19.87
2023-03-26T04:40:45.778Z,19.94
2023-03-26T04:41:15.784Z,20.07
2023-03-26T04:41:45.782Z,20.16
2023-03-26T04:42:15.789Z,20.28
2023-03-26T04:42:45.807Z,20.38
2023-03-26T04:43:15.777Z,20.46
2023-03-26T04:43:45.780Z,20.59
2023-03-26T04:44:15.780Z,20.66
2023-03-26T04:44:45.780Z,20.53
2023-03-26T04:45:15.799Z,20.35
2023-03-26T04:45:45.785Z,20.23
2023-03-26T04:46:15.792Z,20.3
2023-03-26T04:46:45.828Z,20.5
2023-03-26T04:47:15.777Z,20.56
2023-03-26T04:47:45.813Z,20.78
2023-03-26T04:48:15.779Z,21.05
2023-03-26T04:48:45.786Z,21.5
2023-03-26T04:49:15.804Z,22.27
2023-03-26T04:49:45.781Z,23.03
2023-03-26T04:50:15.780Z,23.54
2023-03-26T04:50:45.784Z,23.97
2023-03-26T04:51:15.783Z,24.13
2023-03-26T04:51:45.782Z,24.33
2023-03-26T04:52:15.778Z,24.9
2023-03-26T04:52:45.775Z,25.54
2023-03-26T04:53:15.787Z,26.01
2023-03-26T04:53:45.779Z,26.51
2023-03-26T04:54:15.787Z,27.05
2023-03-26T04:54:45.790Z,27.51
2023-03-26T04:55:15.786Z,27.76
2023-03-26T04:55:45.786Z,27.79
2023-03-26T04:56:15.781Z,27.26
2023-03-26T04:56:45.944Z,26.88
2023-03-26T04:57:15.839Z,27.02
2023-03-26T04:57:45.779Z,27.3
2023-03-26T04:58:15.785Z,27.25
2023-03-26T04:58:45.784Z,27.45
2023-03-26T04:59:15.785Z,27.8
2023-03-26T04:59:45.785Z,28.56
2023-03-26T05:00:15.782Z,29.22
2023-03-26T05:00:45.820Z,29.78
2023-03-26T05:01:15.826Z,30.07
2023-03-26T05:01:45.985Z,30.1
2023-03-26T05:02:15.793Z,30.07
2023-03-26T05:02:45.889Z,29.92
2023-03-26T05:03:15.787Z,29.93
2023-03-26T05:03:46.055Z,29.97
2023-03-26T05:04:15.816Z,30.04
2023-03-26T05:04:45.974Z,29.83
2023-03-26T05:05:15.783Z,29.55
2023-03-26T05:05:45.787Z,29.39
2023-03-26T05:06:15.783Z,29.37
2023-03-26T05:06:45.784Z,29.74
2023-03-26T05:07:15.787Z,29.66
2023-03-26T05:07:45.781Z,29.91
2023-03-26T05:08:15.781Z,30.2
2023-03-26T05:08:45.812Z,30.53
2023-03-26T05:09:15.791Z,30.85
2023-03-26T05:09:45.789Z,31.16
2023-03-26T05:10:15.783Z,31.32
2023-03-26T05:10:45.789Z,31.23
2023-03-26T05:11:15.788Z,31.09
2023-03-26T05:11:45.788Z,31.22
2023-03-26T05:12:15.794Z,30.62
2023-03-26T05:12:45.789Z,30.55
2023-03-26T05:13:15.781Z,30.72
2023-03-26T05:13:45.789Z,31.05
2023-03-26T05:14:15.787Z,31.4
2023-03-26T05:14:45.785Z,31.85
2023-03-26T05:15:15.810Z,32.27
2023-03-26T05:15:45.795Z,32.45
2023-03-26T05:16:15.840Z,32.69
2023-03-26T05:16:45.802Z,33.09
2023-03-26T05:17:15.800Z,33.59
2023-03-26T05:17:45.826Z,34.12
2023-03-26T05:18:15.792Z,34.59
2023-03-26T05:18:45.784Z,34.74
2023-03-26T05:19:15.786Z,34.94
2023-03-26T05:19:45.798Z,34.71
2023-03-26T05:20:15.790Z,34.68
2023-03-26T05:20:45.787Z,34.74
2023-03-26T05:21:15.797Z,34.73
2023-03-26T05:21:45.786Z,34.86
2023-03-26T05:22:15.786Z,34.95
2023-03-26T05:22:45.790Z,35.08
2023-03-26T05:23:15.797Z,35.01
2023-03-26T05:23:45.786Z,34.89
2023-03-26T05:24:15.796Z,34.71
2023-03-26T05:24:45.804Z,34.6
2023-03-26T05:25:15.793Z,34.37
2023-03-26T05:25:45.796Z,34.18
2023-03-26T05:26:15.797Z,34.09
2023-03-26T05:26:45.799Z,33.94
2023-03-26T05:27:15.805Z,33.6
2023-03-26T05:27:45.786Z,33.28
2023-03-26T05:28:15.808Z,33.27
2023-03-26T05:28:45.795Z,33.23
2023-03-26T05:29:15.796Z,32.8
2023-03-26T05:29:45.792Z,32.53
2023-03-26T05:30:15.794Z,32.42
2023-03-26T05:30:45.791Z,32.53
2023-03-26T05:31:15.802Z,32.72
2023-03-26T05:31:45.795Z,33.06
2023-03-26T05:32:15.799Z,33.18
2023-03-26T05:32:45.834Z,32.54
2023-03-26T05:33:15.869Z,32.05
2023-03-26T05:33:45.910Z,31.92
2023-03-26T05:34:15.794Z,31.26
2023-03-26T05:34:45.789Z,30.94
2023-03-26T05:35:15.801Z,30.14
2023-03-26T05:35:45.826Z,29.8
2023-03-26T05:36:15.801Z,30.12
2023-03-26T05:36:45.806Z,30.84
2023-03-26T05:37:15.794Z,31.61
2023-03-26T05:37:45.797Z,32.01
2023-03-26T05:38:15.792Z,32.07
2023-03-26T05:38:45.796Z,32.11
2023-03-26T05:39:15.806Z,31.76
2023-03-26T05:39:45.801Z,31.58
2023-03-26T05:40:15.799Z,31.87
2023-03-26T05:40:45.800Z,31.87
2023-03-26T05:41:15.817Z,31.44
2023-03-26T05:41:45.799Z,31
2023-03-26T05:42:15.806Z,30.71
2023-03-26T05:42:45.803Z,30.33
2023-03-26T05:43:15.799Z,30.09
2023-03-26T05:43:45.805Z,29.84
2023-03-26T05:44:15.799Z,29.61
2023-03-26T05:44:45.796Z,29.06
2023-03-26T05:45:15.807Z,28.85
2023-03-26T05:45:45.842Z,28.85
2023-03-26T05:46:15.941Z,28.95
2023-03-26T05:46:45.802Z,28.33
2023-03-26T05:47:15.801Z,27.92
2023-03-26T05:47:45.830Z,27.86
2023-03-26T05:48:15.806Z,27.89
2023-03-26T05:48:45.805Z,27.97
2023-03-26T05:49:15.800Z,28.41
2023-03-26T05:49:45.808Z,28.84
2023-03-26T05:50:15.820Z,29.24
2023-03-26T05:50:45.796Z,29.92
2023-03-26T05:51:15.802Z,29.95
2023-03-26T05:51:45.802Z,29.92
2023-03-26T05:52:15.797Z,29.89
2023-03-26T05:52:45.800Z,29.99
2023-03-26T05:53:15.802Z,30.17
2023-03-26T05:53:45.812Z,30.64
2023-03-26T05:54:15.809Z,30.82
2023-03-26T05:54:45.811Z,30.84
2023-03-26T05:55:15.810Z,30.43
2023-03-26T05:55:45.814Z,30.16
2023-03-26T05:56:15.806Z,30.43
2023-03-26T05:56:45.842Z,31.14
2023-03-26T05:57:15.843Z,32.07
2023-03-26T05:57:45.808Z,32.58
2023-03-26T05:58:15.806Z,32.84
2023-03-26T05:58:45.804Z,32.8
2023-03-26T05:59:15.813Z,32.85
2023-03-26T05:59:45.805Z,32.96
2023-03-26T06:00:15.814Z,33.28
2023-03-26T06:00:45.810Z,33.82
2023-03-26T06:01:15.802Z,34.39
2023-03-26T06:01:45.808Z,34.87
2023-03-26T06:02:15.802Z,34.95
2023-03-26T06:02:45.879Z,34.64
2023-03-26T06:03:15.889Z,34.14
2023-03-26T06:03:45.882Z,33.73
2023-03-26T06:04:15.974Z,33.18
2023-03-26T06:04:46.043Z,32.79
2023-03-26T06:05:15.815Z,32.36
2023-03-26T06:05:45.806Z,32.05
2023-03-26T06:06:15.811Z,31.98
2023-03-26T06:06:45.808Z,32.26
2023-03-26T06:07:15.804Z,32.65
2023-03-26T06:07:45.808Z,32.99
2023-03-26T06:08:15.809Z,32.75
2023-03-26T06:08:45.812Z,32.37
2023-03-26T06:09:15.808Z,31.89
2023-03-26T06:09:45.828Z,31.45
2023-03-26T06:10:18.364Z,30.99
2023-03-26T06:10:46.843Z,30.58
2023-03-26T06:11:15.818Z,30.67
2023-03-26T06:11:45.808Z,30.82
2023-03-26T06:12:15.843Z,30.92
2023-03-26T06:12:45.818Z,30.95
2023-03-26T06:13:15.806Z,31.18
2023-03-26T06:13:45.866Z,31.57
2023-03-26T06:14:15.826Z,31.82
2023-03-26T06:14:45.810Z,31.83
2023-03-26T06:15:15.812Z,31.89
2023-03-26T06:15:45.867Z,32.13
2023-03-26T06:16:26.477Z,32.32
2023-03-26T06:16:46.699Z,32.35
2023-03-26T06:17:15.813Z,32.33
2023-03-26T06:17:45.866Z,32.16
2023-03-26T06:18:15.816Z,32.12
2023-03-26T06:18:45.855Z,32.22
2023-03-26T06:19:15.815Z,32.25
2023-03-26T06:19:45.815Z,32.46
2023-03-26T06:20:15.807Z,32.64
2023-03-26T06:20:45.820Z,32.69
2023-03-26T06:21:15.812Z,32.16
2023-03-26T06:21:45.814Z,31.43
2023-03-26T06:22:15.828Z,31.14
2023-03-26T06:22:45.821Z,31.09
2023-03-26T06:23:15.835Z,31.38
2023-03-26T06:23:45.817Z,31.91
2023-03-26T06:24:15.816Z,32.63
2023-03-26T06:24:45.819Z,33.35
2023-03-26T06:25:15.814Z,34.17
2023-03-26T06:25:45.850Z,35.11
2023-03-26T06:26:15.817Z,35.58
2023-03-26T06:26:45.816Z,35.74
2023-03-26T06:27:15.816Z,35.38
2023-03-26T06:27:45.819Z,35.01